sensor_id;sensor_type;location;lat;lon;timestamp;temperature;humidity
14016;DHT22;7083;48.854;9.158;2023-06-19T00:00:16;21.30;81.10
14016;DHT22;7083;48.854;9.158;2023-06-19T00:02:43;21.30;82.10
14016;DHT22;7083;48.854;9.158;2023-06-19T00:05:09;21.20;82.30
14016;DHT22;7083;48.854;9.158;2023-06-19T00:07:37;21.10;82.30
14016;DHT22;7083;48.854;9.158;2023-06-19T00:10:05;21.00;82.50
14016;DHT22;7083;48.854;9.158;2023-06-19T00:12:32;20.90;83.40
14016;DHT22;7083;48.854;9.158;2023-06-19T00:14:59;20.80;84.40
14016;DHT22;7083;48.854;9.158;2023-06-19T00:17:26;20.70;85.20
14016;DHT22;7083;48.854;9.158;2023-06-19T00:19:53;20.60;85.10
14016;DHT22;7083;48.854;9.158;2023-06-19T00:22:20;20.60;85.50
14016;DHT22;7083;48.854;9.158;2023-06-19T00:24:47;20.60;85.40
14016;DHT22;7083;48.854;9.158;2023-06-19T00:27:15;20.50;85.50
14016;DHT22;7083;48.854;9.158;2023-06-19T00:29:41;20.60;85.90
14016;DHT22;7083;48.854;9.158;2023-06-19T00:32:08;20.50;86.00
14016;DHT22;7083;48.854;9.158;2023-06-19T00:34:35;20.50;85.90
14016;DHT22;7083;48.854;9.158;2023-06-19T00:37:03;20.50;86.00
14016;DHT22;7083;48.854;9.158;2023-06-19T00:39:30;20.50;85.80
14016;DHT22;7083;48.854;9.158;2023-06-19T00:41:57;20.50;86.00
14016;DHT22;7083;48.854;9.158;2023-06-19T00:44:25;20.50;85.80
14016;DHT22;7083;48.854;9.158;2023-06-19T00:46:56;20.60;86.00
14016;DHT22;7083;48.854;9.158;2023-06-19T00:49:24;20.50;85.80
14016;DHT22;7083;48.854;9.158;2023-06-19T00:51:51;20.60;86.20
14016;DHT22;7083;48.854;9.158;2023-06-19T00:54:18;20.60;86.30
14016;DHT22;7083;48.854;9.158;2023-06-19T00:56:45;20.60;86.00
14016;DHT22;7083;48.854;9.158;2023-06-19T00:59:15;20.70;86.20
14016;DHT22;7083;48.854;9.158;2023-06-19T01:01:44;20.80;85.70
14016;DHT22;7083;48.854;9.158;2023-06-19T01:04:11;20.90;85.40
14016;DHT22;7083;48.854;9.158;2023-06-19T01:06:43;20.90;84.90
14016;DHT22;7083;48.854;9.158;2023-06-19T01:09:14;21.00;85.10
14016;DHT22;7083;48.854;9.158;2023-06-19T01:11:46;21.30;84.00
14016;DHT22;7083;48.854;9.158;2023-06-19T01:14:17;21.60;82.90
14016;DHT22;7083;48.854;9.158;2023-06-19T01:16:46;22.00;82.10
14016;DHT22;7083;48.854;9.158;2023-06-19T01:19:18;22.20;81.10
14016;DHT22;7083;48.854;9.158;2023-06-19T01:21:45;22.30;81.00
14016;DHT22;7083;48.854;9.158;2023-06-19T01:24:14;22.40;81.40
14016;DHT22;7083;48.854;9.158;2023-06-19T01:26:41;22.50;80.90
14016;DHT22;7083;48.854;9.158;2023-06-19T01:29:12;22.40;80.50
14016;DHT22;7083;48.854;9.158;2023-06-19T01:31:45;22.50;80.60
14016;DHT22;7083;48.854;9.158;2023-06-19T01:34:14;22.40;80.70
14016;DHT22;7083;48.854;9.158;2023-06-19T01:36:42;22.40;81.10
14016;DHT22;7083;48.854;9.158;2023-06-19T01:39:10;22.40;81.70
14016;DHT22;7083;48.854;9.158;2023-06-19T01:41:39;22.30;81.60
14016;DHT22;7083;48.854;9.158;2023-06-19T01:44:07;22.40;82.30
14016;DHT22;7083;48.854;9.158;2023-06-19T01:46:34;22.30;82.20
14016;DHT22;7083;48.854;9.158;2023-06-19T01:49:01;22.20;82.30
14016;DHT22;7083;48.854;9.158;2023-06-19T01:51:28;22.30;83.70
14016;DHT22;7083;48.854;9.158;2023-06-19T01:53:54;22.20;84.00
14016;DHT22;7083;48.854;9.158;2023-06-19T01:56:22;22.20;84.10
14016;DHT22;7083;48.854;9.158;2023-06-19T01:58:51;22.20;85.40
14016;DHT22;7083;48.854;9.158;2023-06-19T02:01:17;22.20;85.30
14016;DHT22;7083;48.854;9.158;2023-06-19T02:03:44;22.10;86.10
14016;DHT22;7083;48.854;9.158;2023-06-19T02:06:10;22.00;86.10
14016;DHT22;7083;48.854;9.158;2023-06-19T02:08:37;22.10;86.30
14016;DHT22;7083;48.854;9.158;2023-06-19T02:11:04;22.10;86.90
14016;DHT22;7083;48.854;9.158;2023-06-19T02:13:31;22.10;86.90
14016;DHT22;7083;48.854;9.158;2023-06-19T02:15:59;21.90;87.80
14016;DHT22;7083;48.854;9.158;2023-06-19T02:18:26;21.90;88.30
14016;DHT22;7083;48.854;9.158;2023-06-19T02:20:52;21.90;88.80
14016;DHT22;7083;48.854;9.158;2023-06-19T02:23:19;21.90;89.30
14016;DHT22;7083;48.854;9.158;2023-06-19T02:25:45;21.80;89.60
14016;DHT22;7083;48.854;9.158;2023-06-19T02:28:12;21.80;90.10
14016;DHT22;7083;48.854;9.158;2023-06-19T02:30:39;21.80;90.20
14016;DHT22;7083;48.854;9.158;2023-06-19T02:33:07;21.70;90.20
14016;DHT22;7083;48.854;9.158;2023-06-19T02:35:33;21.70;90.30
14016;DHT22;7083;48.854;9.158;2023-06-19T02:38:00;21.70;90.40
14016;DHT22;7083;48.854;9.158;2023-06-19T02:40:27;21.60;90.50
14016;DHT22;7083;48.854;9.158;2023-06-19T02:42:53;21.50;90.70
14016;DHT22;7083;48.854;9.158;2023-06-19T02:45:20;21.50;90.80
14016;DHT22;7083;48.854;9.158;2023-06-19T02:47:47;21.40;90.90
14016;DHT22;7083;48.854;9.158;2023-06-19T02:50:15;21.40;91.00
14016;DHT22;7083;48.854;9.158;2023-06-19T02:52:41;21.40;91.00
14016;DHT22;7083;48.854;9.158;2023-06-19T02:55:08;21.40;90.90
14016;DHT22;7083;48.854;9.158;2023-06-19T02:57:35;21.30;91.10
14016;DHT22;7083;48.854;9.158;2023-06-19T03:00:02;21.30;91.30
14016;DHT22;7083;48.854;9.158;2023-06-19T03:02:31;21.30;91.30
14016;DHT22;7083;48.854;9.158;2023-06-19T03:04:57;21.20;91.50
14016;DHT22;7083;48.854;9.158;2023-06-19T03:07:25;21.20;91.60
14016;DHT22;7083;48.854;9.158;2023-06-19T03:09:53;21.20;91.60
14016;DHT22;7083;48.854;9.158;2023-06-19T03:12:20;21.20;91.40
14016;DHT22;7083;48.854;9.158;2023-06-19T03:14:47;21.20;91.30
14016;DHT22;7083;48.854;9.158;2023-06-19T03:17:13;21.10;91.40
14016;DHT22;7083;48.854;9.158;2023-06-19T03:19:40;21.20;91.40
14016;DHT22;7083;48.854;9.158;2023-06-19T03:22:07;21.20;91.60
14016;DHT22;7083;48.854;9.158;2023-06-19T03:24:35;21.10;91.40
14016;DHT22;7083;48.854;9.158;2023-06-19T03:27:01;21.10;91.90
14016;DHT22;7083;48.854;9.158;2023-06-19T03:29:28;21.10;92.10
14016;DHT22;7083;48.854;9.158;2023-06-19T03:31:55;21.10;91.90
14016;DHT22;7083;48.854;9.158;2023-06-19T03:34:21;21.10;92.20
14016;DHT22;7083;48.854;9.158;2023-06-19T03:36:48;21.10;92.20
14016;DHT22;7083;48.854;9.158;2023-06-19T03:39:14;21.20;92.00
14016;DHT22;7083;48.854;9.158;2023-06-19T03:41:42;21.10;92.00
14016;DHT22;7083;48.854;9.158;2023-06-19T03:44:09;21.10;91.90
14016;DHT22;7083;48.854;9.158;2023-06-19T03:46:36;21.00;91.80
14016;DHT22;7083;48.854;9.158;2023-06-19T03:49:02;21.10;91.80
14016;DHT22;7083;48.854;9.158;2023-06-19T03:51:30;21.00;92.30
14016;DHT22;7083;48.854;9.158;2023-06-19T03:53:56;21.10;91.90
14016;DHT22;7083;48.854;9.158;2023-06-19T03:56:23;21.10;91.80
14016;DHT22;7083;48.854;9.158;2023-06-19T03:58:51;21.10;91.80
14016;DHT22;7083;48.854;9.158;2023-06-19T04:01:18;21.10;91.90
14016;DHT22;7083;48.854;9.158;2023-06-19T04:03:44;21.10;92.00
14016;DHT22;7083;48.854;9.158;2023-06-19T04:06:11;21.10;92.00
14016;DHT22;7083;48.854;9.158;2023-06-19T04:08:37;21.10;92.10
14016;DHT22;7083;48.854;9.158;2023-06-19T04:11:04;21.10;92.10
14016;DHT22;7083;48.854;9.158;2023-06-19T04:13:31;21.10;92.40
14016;DHT22;7083;48.854;9.158;2023-06-19T04:15:59;21.10;92.30
14016;DHT22;7083;48.854;9.158;2023-06-19T04:18:25;21.20;92.10
14016;DHT22;7083;48.854;9.158;2023-06-19T04:20:52;21.20;92.30
14016;DHT22;7083;48.854;9.158;2023-06-19T04:23:19;21.20;92.50
14016;DHT22;7083;48.854;9.158;2023-06-19T04:25:46;21.10;92.80
14016;DHT22;7083;48.854;9.158;2023-06-19T04:28:12;21.10;92.70
14016;DHT22;7083;48.854;9.158;2023-06-19T04:30:39;21.10;93.00
14016;DHT22;7083;48.854;9.158;2023-06-19T04:33:07;21.10;93.30
14016;DHT22;7083;48.854;9.158;2023-06-19T04:35:34;21.10;93.20
14016;DHT22;7083;48.854;9.158;2023-06-19T04:38:05;21.10;93.40
14016;DHT22;7083;48.854;9.158;2023-06-19T04:40:32;21.10;93.40
14016;DHT22;7083;48.854;9.158;2023-06-19T04:42:58;21.10;93.70
14016;DHT22;7083;48.854;9.158;2023-06-19T04:45:25;21.10;94.10
14016;DHT22;7083;48.854;9.158;2023-06-19T04:47:52;21.20;94.10
14016;DHT22;7083;48.854;9.158;2023-06-19T04:50:20;21.20;94.10
14016;DHT22;7083;48.854;9.158;2023-06-19T04:52:47;21.30;93.80
14016;DHT22;7083;48.854;9.158;2023-06-19T04:55:15;21.40;94.00
14016;DHT22;7083;48.854;9.158;2023-06-19T04:57:42;21.50;94.00
14016;DHT22;7083;48.854;9.158;2023-06-19T05:00:10;21.50;94.10
14016;DHT22;7083;48.854;9.158;2023-06-19T05:02:36;21.60;93.90
14016;DHT22;7083;48.854;9.158;2023-06-19T05:05:04;21.60;94.10
14016;DHT22;7083;48.854;9.158;2023-06-19T05:07:32;21.70;94.20
14016;DHT22;7083;48.854;9.158;2023-06-19T05:09:59;21.70;94.00
14016;DHT22;7083;48.854;9.158;2023-06-19T05:12:26;21.70;94.10
14016;DHT22;7083;48.854;9.158;2023-06-19T05:14:52;21.80;94.60
14016;DHT22;7083;48.854;9.158;2023-06-19T05:17:19;21.80;94.60
14016;DHT22;7083;48.854;9.158;2023-06-19T05:19:45;21.80;94.30
14016;DHT22;7083;48.854;9.158;2023-06-19T05:22:12;21.80;94.50
14016;DHT22;7083;48.854;9.158;2023-06-19T05:24:40;21.90;94.50
14016;DHT22;7083;48.854;9.158;2023-06-19T05:27:07;21.80;94.50
14016;DHT22;7083;48.854;9.158;2023-06-19T05:29:33;21.80;94.20
14016;DHT22;7083;48.854;9.158;2023-06-19T05:32:00;21.80;94.20
14016;DHT22;7083;48.854;9.158;2023-06-19T05:34:27;21.90;94.50
14016;DHT22;7083;48.854;9.158;2023-06-19T05:36:54;21.90;94.90
14016;DHT22;7083;48.854;9.158;2023-06-19T05:39:20;22.00;94.50
14016;DHT22;7083;48.854;9.158;2023-06-19T05:41:48;22.10;94.40
14016;DHT22;7083;48.854;9.158;2023-06-19T05:44:15;22.30;94.50
14016;DHT22;7083;48.854;9.158;2023-06-19T05:46:44;22.30;94.30
14016;DHT22;7083;48.854;9.158;2023-06-19T05:49:11;22.40;94.00
14016;DHT22;7083;48.854;9.158;2023-06-19T05:51:37;22.40;93.80
14016;DHT22;7083;48.854;9.158;2023-06-19T05:54:04;22.40;93.60
14016;DHT22;7083;48.854;9.158;2023-06-19T05:56:31;22.60;93.60
14016;DHT22;7083;48.854;9.158;2023-06-19T05:59:00;22.60;93.70
14016;DHT22;7083;48.854;9.158;2023-06-19T06:01:27;22.70;93.50
14016;DHT22;7083;48.854;9.158;2023-06-19T06:03:54;22.80;93.60
14016;DHT22;7083;48.854;9.158;2023-06-19T06:06:23;22.80;93.40
14016;DHT22;7083;48.854;9.158;2023-06-19T06:08:51;23.30;93.60
14016;DHT22;7083;48.854;9.158;2023-06-19T06:11:17;23.00;93.60
14016;DHT22;7083;48.854;9.158;2023-06-19T06:13:44;22.80;93.40
14016;DHT22;7083;48.854;9.158;2023-06-19T06:16:12;23.20;93.60
14016;DHT22;7083;48.854;9.158;2023-06-19T06:18:39;23.20;93.60
14016;DHT22;7083;48.854;9.158;2023-06-19T06:21:06;23.30;93.40
14016;DHT22;7083;48.854;9.158;2023-06-19T06:23:32;23.50;93.60
14016;DHT22;7083;48.854;9.158;2023-06-19T06:25:59;23.50;93.10
14016;DHT22;7083;48.854;9.158;2023-06-19T06:28:28;23.50;93.30
14016;DHT22;7083;48.854;9.158;2023-06-19T06:30:54;23.60;93.10
14016;DHT22;7083;48.854;9.158;2023-06-19T06:33:23;23.60;92.80
14016;DHT22;7083;48.854;9.158;2023-06-19T06:35:49;23.70;92.80
14016;DHT22;7083;48.854;9.158;2023-06-19T06:38:17;23.70;92.70
14016;DHT22;7083;48.854;9.158;2023-06-19T06:40:43;23.60;92.40
14016;DHT22;7083;48.854;9.158;2023-06-19T06:43:10;23.60;92.50
14016;DHT22;7083;48.854;9.158;2023-06-19T06:45:36;23.60;92.70
14016;DHT22;7083;48.854;9.158;2023-06-19T06:48:04;23.70;93.20
14016;DHT22;7083;48.854;9.158;2023-06-19T06:50:33;23.70;93.30
14016;DHT22;7083;48.854;9.158;2023-06-19T06:53:00;23.70;93.10
14016;DHT22;7083;48.854;9.158;2023-06-19T06:55:27;23.80;93.20
14016;DHT22;7083;48.854;9.158;2023-06-19T06:57:54;24.10;93.30
14016;DHT22;7083;48.854;9.158;2023-06-19T07:00:21;24.10;93.10
14016;DHT22;7083;48.854;9.158;2023-06-19T07:02:47;24.40;92.40
14016;DHT22;7083;48.854;9.158;2023-06-19T07:05:16;24.50;91.90
14016;DHT22;7083;48.854;9.158;2023-06-19T07:07:44;24.70;91.20
14016;DHT22;7083;48.854;9.158;2023-06-19T07:10:11;24.90;90.80
14016;DHT22;7083;48.854;9.158;2023-06-19T07:12:45;24.90;90.50
14016;DHT22;7083;48.854;9.158;2023-06-19T07:15:12;24.90;90.60
14016;DHT22;7083;48.854;9.158;2023-06-19T07:17:38;24.90;90.30
14016;DHT22;7083;48.854;9.158;2023-06-19T07:20:06;24.80;90.20
14016;DHT22;7083;48.854;9.158;2023-06-19T07:22:33;24.70;89.90
14016;DHT22;7083;48.854;9.158;2023-06-19T07:25:01;24.70;90.50
14016;DHT22;7083;48.854;9.158;2023-06-19T07:27:29;24.70;89.50
14016;DHT22;7083;48.854;9.158;2023-06-19T07:29:56;24.70;89.70
14016;DHT22;7083;48.854;9.158;2023-06-19T07:32:25;24.80;89.60
14016;DHT22;7083;48.854;9.158;2023-06-19T07:34:53;25.00;90.40
14016;DHT22;7083;48.854;9.158;2023-06-19T07:37:22;25.30;89.60
14016;DHT22;7083;48.854;9.158;2023-06-19T07:39:50;25.50;88.10
14016;DHT22;7083;48.854;9.158;2023-06-19T07:42:19;25.80;86.10
14016;DHT22;7083;48.854;9.158;2023-06-19T07:44:46;25.70;86.00
14016;DHT22;7083;48.854;9.158;2023-06-19T07:47:15;25.70;86.00
14016;DHT22;7083;48.854;9.158;2023-06-19T07:49:46;25.70;85.90
14016;DHT22;7083;48.854;9.158;2023-06-19T07:52:12;25.60;86.50
14016;DHT22;7083;48.854;9.158;2023-06-19T07:54:49;25.40;86.50
14016;DHT22;7083;48.854;9.158;2023-06-19T07:57:17;25.30;87.10
14016;DHT22;7083;48.854;9.158;2023-06-19T07:59:46;25.20;87.60
14016;DHT22;7083;48.854;9.158;2023-06-19T08:02:13;25.30;88.80
14016;DHT22;7083;48.854;9.158;2023-06-19T08:04:43;25.40;87.70
14016;DHT22;7083;48.854;9.158;2023-06-19T08:07:12;25.60;86.90
14016;DHT22;7083;48.854;9.158;2023-06-19T08:09:39;25.60;87.90
14016;DHT22;7083;48.854;9.158;2023-06-19T08:12:06;25.50;86.30
14016;DHT22;7083;48.854;9.158;2023-06-19T08:14:34;25.40;86.20
14016;DHT22;7083;48.854;9.158;2023-06-19T08:17:01;25.20;86.90
14016;DHT22;7083;48.854;9.158;2023-06-19T08:19:27;25.10;87.30
14016;DHT22;7083;48.854;9.158;2023-06-19T08:21:54;25.10;87.80
14016;DHT22;7083;48.854;9.158;2023-06-19T08:24:21;25.00;88.80
14016;DHT22;7083;48.854;9.158;2023-06-19T08:26:47;24.90;88.90
14016;DHT22;7083;48.854;9.158;2023-06-19T08:29:16;25.00;89.30
14016;DHT22;7083;48.854;9.158;2023-06-19T08:31:44;25.00;89.80
14016;DHT22;7083;48.854;9.158;2023-06-19T08:34:11;24.90;87.30
14016;DHT22;7083;48.854;9.158;2023-06-19T08:36:37;25.00;86.50
14016;DHT22;7083;48.854;9.158;2023-06-19T08:39:04;25.10;86.40
14016;DHT22;7083;48.854;9.158;2023-06-19T08:41:33;25.10;86.20
14016;DHT22;7083;48.854;9.158;2023-06-19T08:44:00;25.20;86.60
14016;DHT22;7083;48.854;9.158;2023-06-19T08:46:28;25.20;87.00
14016;DHT22;7083;48.854;9.158;2023-06-19T08:48:56;25.20;87.30
14016;DHT22;7083;48.854;9.158;2023-06-19T08:51:23;25.20;86.00
14016;DHT22;7083;48.854;9.158;2023-06-19T08:53:55;25.40;85.40
14016;DHT22;7083;48.854;9.158;2023-06-19T08:56:22;25.10;85.60
14016;DHT22;7083;48.854;9.158;2023-06-19T08:58:49;25.20;86.20
14016;DHT22;7083;48.854;9.158;2023-06-19T09:01:17;25.20;87.50
14016;DHT22;7083;48.854;9.158;2023-06-19T09:03:44;25.30;86.10
14016;DHT22;7083;48.854;9.158;2023-06-19T09:06:14;25.30;85.30
14016;DHT22;7083;48.854;9.158;2023-06-19T09:08:41;25.40;85.30
14016;DHT22;7083;48.854;9.158;2023-06-19T09:11:08;25.40;86.10
14016;DHT22;7083;48.854;9.158;2023-06-19T09:13:35;25.50;86.50
14016;DHT22;7083;48.854;9.158;2023-06-19T09:16:03;25.60;86.50
14016;DHT22;7083;48.854;9.158;2023-06-19T09:18:30;25.70;86.70
14016;DHT22;7083;48.854;9.158;2023-06-19T09:20:57;25.70;85.60
14016;DHT22;7083;48.854;9.158;2023-06-19T09:23:25;25.90;85.20
14016;DHT22;7083;48.854;9.158;2023-06-19T09:25:53;26.10;85.20
14016;DHT22;7083;48.854;9.158;2023-06-19T09:28:21;26.20;85.40
14016;DHT22;7083;48.854;9.158;2023-06-19T09:30:53;26.40;85.10
14016;DHT22;7083;48.854;9.158;2023-06-19T09:33:20;26.50;84.00
14016;DHT22;7083;48.854;9.158;2023-06-19T09:35:47;26.70;84.20
14016;DHT22;7083;48.854;9.158;2023-06-19T09:38:17;26.80;83.00
14016;DHT22;7083;48.854;9.158;2023-06-19T09:40:47;26.80;82.80
14016;DHT22;7083;48.854;9.158;2023-06-19T09:43:16;26.90;83.10
14016;DHT22;7083;48.854;9.158;2023-06-19T09:45:47;27.00;80.10
14016;DHT22;7083;48.854;9.158;2023-06-19T09:48:15;27.10;82.10
14016;DHT22;7083;48.854;9.158;2023-06-19T09:50:46;27.10;82.80
14016;DHT22;7083;48.854;9.158;2023-06-19T09:53:15;27.10;82.90
14016;DHT22;7083;48.854;9.158;2023-06-19T09:55:42;27.20;84.40
14016;DHT22;7083;48.854;9.158;2023-06-19T09:58:10;27.30;83.30
14016;DHT22;7083;48.854;9.158;2023-06-19T10:00:37;27.30;82.00
14016;DHT22;7083;48.854;9.158;2023-06-19T10:03:04;27.30;82.30
14016;DHT22;7083;48.854;9.158;2023-06-19T10:05:37;27.30;82.40
14016;DHT22;7083;48.854;9.158;2023-06-19T10:08:04;27.20;83.00
14016;DHT22;7083;48.854;9.158;2023-06-19T10:10:32;27.20;82.90
14016;DHT22;7083;48.854;9.158;2023-06-19T10:13:11;27.20;83.10
14016;DHT22;7083;48.854;9.158;2023-06-19T10:15:42;27.30;82.60
14016;DHT22;7083;48.854;9.158;2023-06-19T10:18:13;27.50;83.10
14016;DHT22;7083;48.854;9.158;2023-06-19T10:20:41;27.50;82.60
14016;DHT22;7083;48.854;9.158;2023-06-19T10:23:11;27.60;82.70
14016;DHT22;7083;48.854;9.158;2023-06-19T10:25:41;27.70;82.30
14016;DHT22;7083;48.854;9.158;2023-06-19T10:28:18;27.70;83.00
14016;DHT22;7083;48.854;9.158;2023-06-19T10:30:53;27.80;81.40
14016;DHT22;7083;48.854;9.158;2023-06-19T10:33:20;27.80;82.00
14016;DHT22;7083;48.854;9.158;2023-06-19T10:35:56;27.80;81.90
14016;DHT22;7083;48.854;9.158;2023-06-19T10:38:23;28.00;82.10
14016;DHT22;7083;48.854;9.158;2023-06-19T10:40:49;27.90;81.80
14016;DHT22;7083;48.854;9.158;2023-06-19T10:43:20;28.00;81.70
14016;DHT22;7083;48.854;9.158;2023-06-19T10:45:47;28.00;81.60
14016;DHT22;7083;48.854;9.158;2023-06-19T10:48:20;28.20;80.60
14016;DHT22;7083;48.854;9.158;2023-06-19T10:50:48;28.30;81.60
14016;DHT22;7083;48.854;9.158;2023-06-19T10:53:23;28.30;79.90
14016;DHT22;7083;48.854;9.158;2023-06-19T10:55:54;28.40;80.60
14016;DHT22;7083;48.854;9.158;2023-06-19T10:58:22;28.60;78.50
14016;DHT22;7083;48.854;9.158;2023-06-19T11:00:48;28.60;77.10
14016;DHT22;7083;48.854;9.158;2023-06-19T11:03:20;28.70;77.40
14016;DHT22;7083;48.854;9.158;2023-06-19T11:05:47;28.70;77.00
14016;DHT22;7083;48.854;9.158;2023-06-19T11:08:18;28.70;77.20
14016;DHT22;7083;48.854;9.158;2023-06-19T11:10:45;28.70;78.00
14016;DHT22;7083;48.854;9.158;2023-06-19T11:13:14;28.80;76.80
14016;DHT22;7083;48.854;9.158;2023-06-19T11:15:41;28.80;78.20
14016;DHT22;7083;48.854;9.158;2023-06-19T11:18:08;28.90;78.60
14016;DHT22;7083;48.854;9.158;2023-06-19T11:20:45;29.00;77.70
14016;DHT22;7083;48.854;9.158;2023-06-19T11:23:12;29.20;76.60
14016;DHT22;7083;48.854;9.158;2023-06-19T11:25:40;29.20;76.30
14016;DHT22;7083;48.854;9.158;2023-06-19T11:28:11;29.30;76.80
14016;DHT22;7083;48.854;9.158;2023-06-19T11:30:39;29.40;75.70
14016;DHT22;7083;48.854;9.158;2023-06-19T11:33:15;29.50;75.70
14016;DHT22;7083;48.854;9.158;2023-06-19T11:35:48;29.50;76.20
14016;DHT22;7083;48.854;9.158;2023-06-19T11:38:19;29.50;76.30
14016;DHT22;7083;48.854;9.158;2023-06-19T11:40:47;29.60;75.20
14016;DHT22;7083;48.854;9.158;2023-06-19T11:43:23;29.60;75.60
14016;DHT22;7083;48.854;9.158;2023-06-19T11:45:51;29.60;75.60
14016;DHT22;7083;48.854;9.158;2023-06-19T11:48:27;30.00;75.60
14016;DHT22;7083;48.854;9.158;2023-06-19T11:50:55;30.20;74.80
14016;DHT22;7083;48.854;9.158;2023-06-19T11:53:23;30.40;74.00
14016;DHT22;7083;48.854;9.158;2023-06-19T11:55:50;30.80;71.80
14016;DHT22;7083;48.854;9.158;2023-06-19T11:58:17;30.70;71.40
14016;DHT22;7083;48.854;9.158;2023-06-19T12:00:45;30.70;72.50
14016;DHT22;7083;48.854;9.158;2023-06-19T12:03:12;30.70;72.80
14016;DHT22;7083;48.854;9.158;2023-06-19T12:05:39;31.10;71.60
14016;DHT22;7083;48.854;9.158;2023-06-19T12:08:07;31.10;69.40
14016;DHT22;7083;48.854;9.158;2023-06-19T12:10:34;31.20;70.30
14016;DHT22;7083;48.854;9.158;2023-06-19T12:13:01;31.40;69.70
14016;DHT22;7083;48.854;9.158;2023-06-19T12:15:28;31.80;69.90
14016;DHT22;7083;48.854;9.158;2023-06-19T12:17:54;31.90;69.90
14016;DHT22;7083;48.854;9.158;2023-06-19T12:20:23;31.80;69.50
14016;DHT22;7083;48.854;9.158;2023-06-19T12:22:50;31.50;68.60
14016;DHT22;7083;48.854;9.158;2023-06-19T12:25:18;31.40;69.00
14016;DHT22;7083;48.854;9.158;2023-06-19T12:27:44;31.10;68.60
14016;DHT22;7083;48.854;9.158;2023-06-19T12:30:12;30.80;70.80
14016;DHT22;7083;48.854;9.158;2023-06-19T12:32:38;30.80;73.50
14016;DHT22;7083;48.854;9.158;2023-06-19T12:35:05;30.70;70.80
14016;DHT22;7083;48.854;9.158;2023-06-19T12:37:32;30.80;76.20
14016;DHT22;7083;48.854;9.158;2023-06-19T12:39:59;31.00;74.30
14016;DHT22;7083;48.854;9.158;2023-06-19T12:42:27;31.40;72.80
14016;DHT22;7083;48.854;9.158;2023-06-19T12:44:53;32.10;71.70
14016;DHT22;7083;48.854;9.158;2023-06-19T12:47:20;32.50;69.80
14016;DHT22;7083;48.854;9.158;2023-06-19T12:49:47;33.50;67.60
14016;DHT22;7083;48.854;9.158;2023-06-19T12:52:13;34.60;62.90
14016;DHT22;7083;48.854;9.158;2023-06-19T12:54:40;36.00;58.60
14016;DHT22;7083;48.854;9.158;2023-06-19T12:57:07;36.50;59.00
14016;DHT22;7083;48.854;9.158;2023-06-19T12:59:35;36.90;59.30
14016;DHT22;7083;48.854;9.158;2023-06-19T13:02:02;37.30;58.30
14016;DHT22;7083;48.854;9.158;2023-06-19T13:04:29;38.20;55.90
14016;DHT22;7083;48.854;9.158;2023-06-19T13:06:56;38.70;54.50
14016;DHT22;7083;48.854;9.158;2023-06-19T13:09:23;39.70;52.50
14016;DHT22;7083;48.854;9.158;2023-06-19T13:11:50;40.10;53.80
14016;DHT22;7083;48.854;9.158;2023-06-19T13:14:17;39.90;56.70
14016;DHT22;7083;48.854;9.158;2023-06-19T13:16:45;40.20;53.60
14016;DHT22;7083;48.854;9.158;2023-06-19T13:19:11;40.20;52.90
14016;DHT22;7083;48.854;9.158;2023-06-19T13:21:38;40.50;53.00
14016;DHT22;7083;48.854;9.158;2023-06-19T13:24:05;40.00;52.50
14016;DHT22;7083;48.854;9.158;2023-06-19T13:26:32;39.00;56.00
14016;DHT22;7083;48.854;9.158;2023-06-19T13:28:58;38.00;56.20
14016;DHT22;7083;48.854;9.158;2023-06-19T13:31:26;37.60;58.10
14016;DHT22;7083;48.854;9.158;2023-06-19T13:33:54;37.30;56.10
14016;DHT22;7083;48.854;9.158;2023-06-19T13:36:21;36.70;56.90
14016;DHT22;7083;48.854;9.158;2023-06-19T13:38:49;36.00;58.30
14016;DHT22;7083;48.854;9.158;2023-06-19T13:41:17;36.00;58.50
14016;DHT22;7083;48.854;9.158;2023-06-19T13:43:44;36.60;59.30
14016;DHT22;7083;48.854;9.158;2023-06-19T13:46:11;37.50;58.90
14016;DHT22;7083;48.854;9.158;2023-06-19T13:48:38;38.30;55.40
14016;DHT22;7083;48.854;9.158;2023-06-19T13:51:06;37.80;56.20
14016;DHT22;7083;48.854;9.158;2023-06-19T13:53:33;37.70;55.50
14016;DHT22;7083;48.854;9.158;2023-06-19T13:55:59;37.70;55.90
14016;DHT22;7083;48.854;9.158;2023-06-19T13:58:26;37.30;55.80
14016;DHT22;7083;48.854;9.158;2023-06-19T14:00:53;36.60;55.30
14016;DHT22;7083;48.854;9.158;2023-06-19T14:03:19;35.90;59.80
14016;DHT22;7083;48.854;9.158;2023-06-19T14:05:46;35.80;59.80
14016;DHT22;7083;48.854;9.158;2023-06-19T14:08:14;35.90;60.50
14016;DHT22;7083;48.854;9.158;2023-06-19T14:10:41;36.30;58.70
14016;DHT22;7083;48.854;9.158;2023-06-19T14:13:09;37.10;57.50
14016;DHT22;7083;48.854;9.158;2023-06-19T14:15:35;37.50;57.70
14016;DHT22;7083;48.854;9.158;2023-06-19T14:18:02;37.70;57.10
14016;DHT22;7083;48.854;9.158;2023-06-19T14:20:29;37.70;55.40
14016;DHT22;7083;48.854;9.158;2023-06-19T14:22:55;37.30;57.70
14016;DHT22;7083;48.854;9.158;2023-06-19T14:25:23;36.80;58.30
14016;DHT22;7083;48.854;9.158;2023-06-19T14:27:50;36.10;58.20
14016;DHT22;7083;48.854;9.158;2023-06-19T14:30:17;35.60;58.50
14016;DHT22;7083;48.854;9.158;2023-06-19T14:32:44;35.00;61.90
14016;DHT22;7083;48.854;9.158;2023-06-19T14:35:10;35.80;59.00
14016;DHT22;7083;48.854;9.158;2023-06-19T14:37:37;36.20;58.60
14016;DHT22;7083;48.854;9.158;2023-06-19T14:40:05;36.40;59.50
14016;DHT22;7083;48.854;9.158;2023-06-19T14:42:33;36.70;56.50
14016;DHT22;7083;48.854;9.158;2023-06-19T14:45:00;37.00;55.60
14016;DHT22;7083;48.854;9.158;2023-06-19T14:47:27;37.20;56.60
14016;DHT22;7083;48.854;9.158;2023-06-19T14:49:53;37.60;57.10
14016;DHT22;7083;48.854;9.158;2023-06-19T14:52:20;38.40;57.40
14016;DHT22;7083;48.854;9.158;2023-06-19T14:54:47;39.10;55.80
14016;DHT22;7083;48.854;9.158;2023-06-19T14:57:14;40.00;53.60
14016;DHT22;7083;48.854;9.158;2023-06-19T14:59:41;40.90;52.80
14016;DHT22;7083;48.854;9.158;2023-06-19T15:02:08;41.60;50.40
14016;DHT22;7083;48.854;9.158;2023-06-19T15:04:36;42.30;50.50
14016;DHT22;7083;48.854;9.158;2023-06-19T15:07:03;43.30;48.80
14016;DHT22;7083;48.854;9.158;2023-06-19T15:09:29;43.60;49.20
14016;DHT22;7083;48.854;9.158;2023-06-19T15:11:56;43.80;46.80
14016;DHT22;7083;48.854;9.158;2023-06-19T15:14:23;43.90;46.20
14016;DHT22;7083;48.854;9.158;2023-06-19T15:16:51;43.90;45.70
14016;DHT22;7083;48.854;9.158;2023-06-19T15:19:17;42.40;49.20
14016;DHT22;7083;48.854;9.158;2023-06-19T15:21:44;41.40;48.90
14016;DHT22;7083;48.854;9.158;2023-06-19T15:24:11;40.60;51.10
14016;DHT22;7083;48.854;9.158;2023-06-19T15:26:37;40.10;50.60
14016;DHT22;7083;48.854;9.158;2023-06-19T15:29:04;39.30;54.30
14016;DHT22;7083;48.854;9.158;2023-06-19T15:31:30;38.70;54.40
14016;DHT22;7083;48.854;9.158;2023-06-19T15:33:58;38.30;54.30
14016;DHT22;7083;48.854;9.158;2023-06-19T15:36:25;37.50;56.30
14016;DHT22;7083;48.854;9.158;2023-06-19T15:38:52;36.90;54.90
14016;DHT22;7083;48.854;9.158;2023-06-19T15:41:19;35.90;57.10
14016;DHT22;7083;48.854;9.158;2023-06-19T15:43:45;35.30;57.80
14016;DHT22;7083;48.854;9.158;2023-06-19T15:46:14;34.60;58.60